Time;durP1;ratioP1;P1;durP2;ratioP2;P2;SDS_P1;SDS_P2;PMS_P1;PMS_P2;Temp;Humidity;BMP_temperature;BMP_pressure;BME280_temperature;BME280_humidity;BME280_pressure;Samples;Min_cycle;Max_cycle;Signal;HPM_P1;HPM_P2
2023/07/08 00:00:36;;;;;;;13.20;9.13;;;;;;;26.29;32.06;97513.13;5034389;28;20176;-72
2023/07/08 00:03:01;;;;;;;14.43;11.27;;;;;;;26.27;32.01;97507.22;5020048;28;21000;-70
2023/07/08 00:05:26;;;;;;;16.33;11.50;;;;;;;26.24;32.12;97506.88;5013716;28;20228;-70
2023/07/08 00:07:52;;;;;;;14.20;11.30;;;;;;;26.18;31.94;97512.19;5010268;28;20259;-71
2023/07/08 00:10:19;;;;;;;11.43;9.77;;;;;;;26.16;31.75;97508.91;5018579;28;20243;-70
2023/07/08 00:12:48;;;;;;;23.83;16.40;;;;;;;26.13;31.43;97492.50;5009961;28;20195;-70
2023/07/08 00:15:14;;;;;;;17.37;14.60;;;;;;;26.13;31.61;97489.81;5009725;28;20463;-70
2023/07/08 00:17:40;;;;;;;16.20;14.33;;;;;;;26.13;31.70;97487.91;5010484;28;20454;-70
2023/07/08 00:20:14;;;;;;;21.73;14.30;;;;;;;26.16;31.81;97491.97;5010799;28;20423;-70
2023/07/08 00:22:41;;;;;;;13.33;10.30;;;;;;;26.17;31.66;97494.44;5025502;28;20234;-70
2023/07/08 00:25:07;;;;;;;19.57;11.40;;;;;;;26.16;31.73;97492.81;5009549;28;20813;-68
2023/07/08 00:27:33;;;;;;;12.73;9.00;;;;;;;26.09;31.99;97486.75;5010630;28;20443;-70
2023/07/08 00:30:00;;;;;;;10.70;9.37;;;;;;;26.02;32.55;97486.13;5010304;28;20427;-71
2023/07/08 00:32:26;;;;;;;11.90;9.50;;;;;;;25.95;32.90;97497.03;5009367;28;20215;-71
2023/07/08 00:34:51;;;;;;;14.63;10.67;;;;;;;25.95;32.88;97493.53;5008708;28;20471;-71
2023/07/08 00:37:16;;;;;;;15.47;11.90;;;;;;;25.93;33.04;97483.03;5009534;28;20271;-71
2023/07/08 00:39:42;;;;;;;12.90;10.43;;;;;;;25.89;32.93;97492.66;5010158;28;20609;-72
2023/07/08 00:42:16;;;;;;;15.80;10.70;;;;;;;25.81;32.88;97496.53;5011911;28;20184;-71
2023/07/08 00:44:41;;;;;;;13.53;8.57;;;;;;;25.78;32.92;97502.41;5008515;28;20203;-70
2023/07/08 00:47:11;;;;;;;13.23;11.83;;;;;;;25.81;33.21;97503.78;5009751;28;20419;-70
2023/07/08 00:49:45;;;;;;;14.37;11.40;;;;;;;25.74;33.17;97512.81;5013841;28;20266;-70
2023/07/08 00:52:16;;;;;;;13.60;9.73;;;;;;;25.68;33.36;97507.59;5006699;28;20423;-72
2023/07/08 00:54:42;;;;;;;16.53;13.40;;;;;;;25.62;33.28;97509.38;5009501;28;20510;-70
2023/07/08 00:57:07;;;;;;;16.10;12.40;;;;;;;25.65;33.39;97502.72;5009395;28;20519;-70
2023/07/08 00:59:38;;;;;;;22.13;18.50;;;;;;;25.63;33.71;97499.44;5011980;28;20199;-71
2023/07/08 01:02:07;;;;;;;13.30;9.97;;;;;;;25.59;33.46;97496.44;5013036;28;20185;-70
2023/07/08 01:04:57;;;;;;;18.03;14.13;;;;;;;25.48;34.02;97503.50;5011059;28;20434;-70
2023/07/08 01:07:24;;;;;;;16.77;14.20;;;;;;;25.34;34.51;97494.91;5006656;28;20931;-70
2023/07/08 01:09:58;;;;;;;17.87;13.80;;;;;;;25.29;34.31;97498.31;5009541;28;20470;-71
2023/07/08 01:12:31;;;;;;;17.53;13.40;;;;;;;25.26;34.59;97500.69;5008601;28;20928;-71
2023/07/08 01:14:57;;;;;;;17.20;14.20;;;;;;;25.27;34.60;97495.06;5009350;28;20491;-70
2023/07/08 01:17:23;;;;;;;18.30;13.10;;;;;;;25.23;34.34;97499.28;5007706;28;20637;-70
2023/07/08 01:19:49;;;;;;;14.87;12.93;;;;;;;25.23;34.50;97493.91;5009694;28;20475;-70
2023/07/08 01:22:14;;;;;;;21.77;13.47;;;;;;;25.21;34.32;97496.00;5008405;28;20810;-70
2023/07/08 01:24:42;;;;;;;14.43;12.40;;;;;;;25.17;34.58;97489.53;5009222;28;20196;-71
2023/07/08 01:27:11;;;;;;;18.33;13.00;;;;;;;25.14;34.90;97490.00;5009204;28;20364;-72
2023/07/08 01:29:40;;;;;;;17.60;12.37;;;;;;;25.10;35.06;97489.66;4988077;28;20428;-71
2023/07/08 01:32:06;;;;;;;13.30;10.70;;;;;;;25.05;35.28;97483.38;4992277;28;20487;-71
2023/07/08 01:34:32;;;;;;;19.10;11.60;;;;;;;24.99;35.48;97485.97;5008408;28;20467;-71
2023/07/08 01:36:58;;;;;;;13.33;9.30;;;;;;;24.93;35.38;97492.28;5015362;28;20210;-71
2023/07/08 01:39:25;;;;;;;12.90;10.37;;;;;;;24.93;35.17;97496.81;5023800;28;20430;-71
2023/07/08 01:41:51;;;;;;;13.20;10.77;;;;;;;24.87;35.09;97492.44;5011705;28;20442;-72
2023/07/08 01:44:34;;;;;;;11.27;9.40;;;;;;;24.82;35.32;97493.94;5008479;28;20530;-72
2023/07/08 01:47:03;;;;;;;14.10;11.70;;;;;;;24.83;35.18;97492.06;5012246;28;20223;-70
2023/07/08 01:49:29;;;;;;;16.80;12.20;;;;;;;24.83;35.68;97489.38;5008181;28;20428;-70
2023/07/08 01:51:55;;;;;;;18.87;11.00;;;;;;;24.77;35.97;97479.63;5007751;28;20426;-70
2023/07/08 01:54:20;;;;;;;12.00;10.43;;;;;;;24.68;35.73;97488.03;5007031;28;20611;-71
2023/07/08 01:56:46;;;;;;;14.03;8.57;;;;;;;24.67;35.64;97493.59;5020080;28;20202;-69
2023/07/08 01:59:11;;;;;;;12.77;8.50;;;;;;;24.62;35.98;97491.63;5008594;28;20184;-70
2023/07/08 02:01:37;;;;;;;11.00;9.70;;;;;;;24.61;35.89;97489.19;5010649;28;20617;-71
2023/07/08 02:04:02;;;;;;;16.70;10.73;;;;;;;24.59;35.58;97488.63;5011427;28;20228;-72
2023/07/08 02:06:28;;;;;;;15.43;12.37;;;;;;;24.58;35.93;97486.97;5008730;28;20188;-72
2023/07/08 02:08:54;;;;;;;15.20;12.27;;;;;;;24.52;35.63;97491.41;5008996;28;20214;-70
2023/07/08 02:11:20;;;;;;;11.87;8.27;;;;;;;24.44;35.77;97491.78;5011547;28;20180;-71
2023/07/08 02:13:45;;;;;;;14.47;8.63;;;;;;;24.36;36.10;97491.09;5008400;28;20459;-71
2023/07/08 02:16:11;;;;;;;12.63;10.30;;;;;;;24.36;36.18;97493.75;5008434;28;20192;-72
2023/07/08 02:18:36;;;;;;;13.17;11.23;;;;;;;24.36;36.44;97495.66;5007924;28;21089;-72
2023/07/08 02:21:02;;;;;;;10.33;8.47;;;;;;;24.38;36.21;97497.03;5008454;28;20235;-71
2023/07/08 02:23:27;;;;;;;15.77;9.23;;;;;;;24.34;36.03;97497.72;5003899;28;20180;-71
2023/07/08 02:25:54;;;;;;;12.87;9.80;;;;;;;24.33;35.80;97494.22;5003081;28;20763;-71
2023/07/08 02:28:19;;;;;;;14.73;10.57;;;;;;;24.35;36.16;97492.13;5008261;28;20263;-69
2023/07/08 02:30:46;;;;;;;14.80;11.37;;;;;;;24.37;36.35;97495.41;5017376;28;20617;-71
2023/07/08 02:33:12;;;;;;;9.03;8.07;;;;;;;24.37;36.38;97505.31;5039855;28;20698;-69
2023/07/08 02:35:38;;;;;;;12.83;10.60;;;;;;;24.35;36.53;97492.13;5013303;28;20435;-71
2023/07/08 02:38:04;;;;;;;14.00;9.37;;;;;;;24.31;36.55;97493.66;5017748;28;20534;-71
2023/07/08 02:40:29;;;;;;;11.97;9.07;;;;;;;24.23;36.35;97499.34;5038466;28;20180;-71
2023/07/08 02:42:55;;;;;;;13.10;9.93;;;;;;;24.26;36.44;97500.78;5037186;28;20184;-71
2023/07/08 02:45:20;;;;;;;13.93;8.50;;;;;;;24.22;36.86;97503.09;5010208;28;20208;-71
2023/07/08 02:47:46;;;;;;;14.27;10.87;;;;;;;24.21;36.99;97506.81;5012426;28;20263;-70
2023/07/08 02:50:11;;;;;;;10.80;9.30;;;;;;;24.20;36.95;97505.16;5020302;28;20318;-71
2023/07/08 02:52:37;;;;;;;13.67;8.37;;;;;;;24.19;36.94;97515.06;5014322;28;20199;-72
2023/07/08 02:55:03;;;;;;;13.33;8.27;;;;;;;24.20;36.50;97518.56;5015047;28;20215;-71
2023/07/08 02:57:28;;;;;;;13.30;9.60;;;;;;;24.24;36.43;97530.44;5011875;28;20266;-73
2023/07/08 02:59:54;;;;;;;14.23;8.40;;;;;;;24.23;36.11;97534.16;5015996;28;20176;-71
2023/07/08 03:02:21;;;;;;;12.63;7.97;;;;;;;24.28;35.55;97528.94;5011568;28;20184;-71
2023/07/08 03:04:47;;;;;;;15.73;7.93;;;;;;;24.34;35.11;97519.97;5010931;28;20192;-71
2023/07/08 03:07:13;;;;;;;11.70;8.37;;;;;;;24.37;35.36;97532.88;5013740;28;20427;-71
2023/07/08 03:09:39;;;;;;;14.90;8.13;;;;;;;24.44;35.29;97526.63;5010336;28;20180;-71
2023/07/08 03:12:06;;;;;;;12.63;7.87;;;;;;;24.50;34.85;97536.38;5011971;28;20431;-70
2023/07/08 03:14:32;;;;;;;9.27;7.50;;;;;;;24.54;34.84;97540.22;5010336;28;20236;-71
2023/07/08 03:16:57;;;;;;;11.93;8.13;;;;;;;24.57;34.68;97521.00;5008806;28;20428;-71
2023/07/08 03:19:22;;;;;;;10.33;7.73;;;;;;;24.57;35.21;97523.69;5010148;28;20238;-70
2023/07/08 03:21:48;;;;;;;9.63;6.40;;;;;;;24.56;35.32;97529.25;4976102;28;20295;-69
2023/07/08 03:24:13;;;;;;;11.10;7.83;;;;;;;24.57;34.85;97529.03;5018602;28;20247;-69
2023/07/08 03:26:39;;;;;;;10.47;8.27;;;;;;;24.60;35.27;97531.22;5010026;28;20204;-71
2023/07/08 03:29:05;;;;;;;13.50;7.90;;;;;;;24.60;35.34;97507.13;5009125;28;20188;-71
2023/07/08 03:31:31;;;;;;;11.17;7.60;;;;;;;24.56;35.44;97510.50;5011135;28;20185;-70
2023/07/08 03:33:56;;;;;;;10.40;8.33;;;;;;;24.47;36.09;97513.56;5010575;28;20467;-71
2023/07/08 03:36:24;;;;;;;10.50;7.50;;;;;;;24.48;36.09;97506.31;5010028;28;20288;-70
2023/07/08 03:38:52;;;;;;;10.20;7.97;;;;;;;24.41;36.67;97505.66;5009799;28;20189;-70
2023/07/08 03:41:17;;;;;;;12.30;8.10;;;;;;;24.46;36.48;97508.41;5009819;28;20939;-69
2023/07/08 03:43:43;;;;;;;9.23;7.60;;;;;;;24.51;36.16;97512.03;5009759;28;20427;-70
2023/07/08 03:46:12;;;;;;;9.60;7.70;;;;;;;24.57;35.81;97515.66;5018676;28;20231;-71
2023/07/08 03:48:38;;;;;;;14.63;9.13;;;;;;;24.62;35.88;97518.41;5010632;28;20544;-71
2023/07/08 03:51:04;;;;;;;10.60;7.40;;;;;;;24.63;36.10;97524.59;5016510;28;20497;-72
2023/07/08 03:53:30;;;;;;;15.57;7.67;;;;;;;24.63;35.46;97536.13;5010727;28;20452;-70
2023/07/08 03:55:55;;;;;;;10.30;6.83;;;;;;;24.65;35.10;97530.53;5010411;28;20590;-72
2023/07/08 03:58:20;;;;;;;8.77;6.80;;;;;;;24.63;35.54;97525.41;5008325;28;20267;-70
2023/07/08 04:00:46;;;;;;;11.37;7.93;;;;;;;24.65;35.77;97528.66;5010520;28;20212;-71
2023/07/08 04:03:12;;;;;;;11.67;6.90;;;;;;;24.63;36.29;97525.41;5008045;28;20223;-71
2023/07/08 04:05:37;;;;;;;13.17;7.40;;;;;;;24.51;36.88;97525.41;5011622;28;20665;-70
2023/07/08 04:08:03;;;;;;;10.07;7.90;;;;;;;24.36;37.21;97528.56;5013029;28;20557;-70
2023/07/08 04:10:28;;;;;;;13.40;7.73;;;;;;;24.29;37.60;97524.38;5012757;28;20188;-70
2023/07/08 04:12:54;;;;;;;10.90;8.33;;;;;;;24.29;37.24;97525.22;5012686;28;20191;-70
2023/07/08 04:15:19;;;;;;;9.83;7.77;;;;;;;24.29;37.37;97530.56;5007557;28;20226;-69
2023/07/08 04:17:47;;;;;;;11.93;8.43;;;;;;;24.31;36.82;97528.47;5008409;28;20223;-70
2023/07/08 04:20:14;;;;;;;13.93;8.73;;;;;;;24.38;37.06;97534.53;5008646;28;20211;-72
2023/07/08 04:22:40;;;;;;;12.50;8.00;;;;;;;24.42;36.83;97528.72;5008591;28;20427;-69
2023/07/08 04:25:06;;;;;;;9.50;7.27;;;;;;;24.44;36.89;97523.94;5013847;28;20497;-69
2023/07/08 04:27:31;;;;;;;11.43;8.23;;;;;;;24.49;37.94;97527.53;5008397;28;20188;-70
2023/07/08 04:29:57;;;;;;;9.10;7.87;;;;;;;24.52;38.13;97534.28;5009614;28;20192;-70
2023/07/08 04:32:25;;;;;;;11.33;7.60;;;;;;;24.53;37.95;97520.63;5006887;28;20177;-70
2023/07/08 04:34:52;;;;;;;10.07;7.67;;;;;;;24.54;38.42;97524.16;5007564;28;20243;-71
2023/07/08 04:37:19;;;;;;;8.67;7.30;;;;;;;24.54;38.57;97524.16;5007760;28;20485;-70
2023/07/08 04:39:44;;;;;;;10.60;7.70;;;;;;;24.61;38.65;97522.16;5011361;28;20428;-70
2023/07/08 04:42:12;;;;;;;10.40;7.60;;;;;;;24.69;38.62;97515.66;5016832;28;20762;-70
2023/07/08 04:44:38;;;;;;;10.03;7.90;;;;;;;24.80;37.81;97522.03;5015868;28;20203;-70
2023/07/08 04:47:03;;;;;;;9.47;7.77;;;;;;;24.87;37.67;97546.03;5011819;28;20951;-70
2023/07/08 04:49:33;;;;;;;10.10;7.10;;;;;;;24.90;37.27;97541.00;5008187;28;20194;-70
2023/07/08 04:51:59;;;;;;;10.63;7.17;;;;;;;24.99;36.74;97533.41;5011119;28;20180;-70
2023/07/08 04:54:25;;;;;;;10.07;6.63;;;;;;;25.05;35.75;97537.81;5008226;28;20975;-69
2023/07/08 04:56:52;;;;;;;9.07;6.67;;;;;;;25.11;35.38;97536.03;4988580;28;20428;-71
2023/07/08 04:59:21;;;;;;;9.40;7.37;;;;;;;25.21;35.78;97535.44;5008147;28;20188;-70
2023/07/08 05:01:47;;;;;;;8.77;7.30;;;;;;;25.27;35.09;97524.56;5007696;28;21014;-70
2023/07/08 05:04:13;;;;;;;10.73;7.93;;;;;;;25.35;35.26;97525.22;5011196;28;20462;-70
2023/07/08 05:06:39;;;;;;;10.67;6.73;;;;;;;25.39;35.96;97537.09;5007896;28;20187;-71
2023/07/08 05:09:04;;;;;;;10.67;6.77;;;;;;;25.47;36.10;97530.56;5006502;28;20439;-70
2023/07/08 05:11:30;;;;;;;8.10;6.80;;;;;;;25.51;35.10;97542.47;5009348;28;20184;-71
2023/07/08 05:13:56;;;;;;;9.90;7.30;;;;;;;25.54;35.50;97542.78;5006151;28;20212;-70
2023/07/08 05:16:21;;;;;;;9.30;6.80;;;;;;;25.63;35.46;97542.38;5007121;28;20239;-70
2023/07/08 05:18:47;;;;;;;12.37;7.70;;;;;;;25.73;35.24;97548.75;5006869;28;20298;-72
2023/07/08 05:21:13;;;;;;;9.80;7.23;;;;;;;25.82;35.55;97573.34;5003027;28;20188;-71
2023/07/08 05:23:38;;;;;;;10.97;6.60;;;;;;;25.96;35.07;97573.03;5007670;28;20238;-69
2023/07/08 05:26:05;;;;;;;8.40;6.87;;;;;;;25.97;33.62;97548.59;5008560;28;20227;-70
2023/07/08 05:28:31;;;;;;;11.70;6.90;;;;;;;26.05;33.18;97550.06;5007117;28;20192;-70
2023/07/08 05:30:56;;;;;;;9.67;6.63;;;;;;;26.00;33.07;97555.34;5016288;28;20438;-71
2023/07/08 05:33:23;;;;;;;9.07;7.33;;;;;;;26.01;33.09;97568.53;4998508;28;20195;-70
2023/07/08 05:35:49;;;;;;;11.13;7.20;;;;;;;26.03;32.50;97574.47;5012439;28;20200;-71
2023/07/08 05:38:14;;;;;;;8.97;6.70;;;;;;;26.09;32.11;97575.34;5008413;28;20457;-70
2023/07/08 05:40:40;;;;;;;11.10;7.13;;;;;;;26.15;31.90;97570.94;5009202;28;20188;-71
2023/07/08 05:43:06;;;;;;;7.40;6.50;;;;;;;26.19;32.17;97570.19;5011774;28;20615;-71
2023/07/08 05:45:32;;;;;;;13.03;6.50;;;;;;;26.21;31.79;97568.06;5008071;28;20687;-73
2023/07/08 05:47:57;;;;;;;10.00;7.47;;;;;;;26.25;31.70;97567.56;5012723;28;20506;-70
2023/07/08 05:50:22;;;;;;;10.63;6.77;;;;;;;26.38;31.43;97569.94;5012522;28;20657;-72
2023/07/08 05:52:48;;;;;;;9.37;6.70;;;;;;;26.46;31.52;97577.59;5007728;28;20669;-70
2023/07/08 05:55:13;;;;;;;8.67;6.87;;;;;;;26.50;31.40;97565.28;5015930;28;20637;-70
2023/07/08 05:57:39;;;;;;;12.87;7.40;;;;;;;26.52;31.26;97571.22;5007274;28;20219;-71
2023/07/08 06:00:05;;;;;;;12.20;6.53;;;;;;;26.60;31.57;97567.31;5008464;28;20208;-70
2023/07/08 06:02:31;;;;;;;9.23;6.67;;;;;;;26.61;32.00;97573.47;5008926;28;20285;-70
2023/07/08 06:04:56;;;;;;;8.80;7.27;;;;;;;26.63;31.85;97565.97;5014258;28;20891;-69
2023/07/08 06:07:22;;;;;;;11.73;8.00;;;;;;;26.67;31.70;97569.81;5016199;28;20266;-69
2023/07/08 06:09:47;;;;;;;8.30;6.77;;;;;;;26.62;31.82;97564.34;5011245;28;20274;-70
2023/07/08 06:12:13;;;;;;;9.87;6.93;;;;;;;26.65;32.01;97571.94;5009618;28;20772;-69
2023/07/08 06:14:39;;;;;;;8.60;6.30;;;;;;;26.70;31.89;97561.25;5012218;28;20712;-70
2023/07/08 06:17:05;;;;;;;8.80;6.50;;;;;;;26.90;32.11;97565.28;5006906;28;20215;-70
2023/07/08 06:19:30;;;;;;;10.97;6.90;;;;;;;26.82;32.09;97563.84;5008032;28;20556;-69
2023/07/08 06:21:56;;;;;;;7.60;5.80;;;;;;;27.02;31.87;97563.28;5008384;28;20444;-72
2023/07/08 06:24:21;;;;;;;10.37;6.93;;;;;;;27.22;31.95;97568.09;5015205;28;20290;-69
2023/07/08 06:26:47;;;;;;;8.50;6.40;;;;;;;27.35;32.07;97568.78;5010029;28;20192;-69
2023/07/08 06:29:12;;;;;;;10.17;6.60;;;;;;;27.44;31.77;97576.19;5007857;28;20191;-70
2023/07/08 06:31:38;;;;;;;10.53;6.83;;;;;;;27.50;31.92;97581.59;4996691;28;20269;-70
2023/07/08 06:34:04;;;;;;;11.57;6.97;;;;;;;27.54;32.08;97590.81;5008318;28;20254;-70
2023/07/08 06:36:30;;;;;;;7.73;6.40;;;;;;;27.55;32.25;97597.81;5011249;28;20196;-70
2023/07/08 06:38:55;;;;;;;13.70;6.90;;;;;;;27.53;32.06;97600.78;4999061;28;20203;-70
2023/07/08 06:41:21;;;;;;;7.63;6.23;;;;;;;27.53;32.28;97606.16;5009153;28;20427;-70
2023/07/08 06:43:46;;;;;;;9.93;7.20;;;;;;;27.59;32.42;97615.09;5007681;28;20176;-68
2023/07/08 06:46:12;;;;;;;7.80;5.90;;;;;;;27.71;32.21;97613.06;4998412;28;20189;-70
2023/07/08 06:48:37;;;;;;;8.00;5.30;;;;;;;27.88;32.68;97628.28;5009593;28;20191;-71
2023/07/08 06:51:03;;;;;;;8.67;5.67;;;;;;;28.05;32.21;97630.84;5013798;28;20230;-70
2023/07/08 06:53:28;;;;;;;8.30;5.87;;;;;;;28.23;31.99;97624.31;5010198;28;20200;-71
2023/07/08 06:55:54;;;;;;;9.33;5.47;;;;;;;28.31;31.74;97625.72;5007599;28;20676;-70
2023/07/08 06:58:19;;;;;;;7.80;5.30;;;;;;;28.33;31.33;97629.81;5008234;28;20188;-70
2023/07/08 07:00:45;;;;;;;9.27;5.57;;;;;;;28.35;31.62;97626.84;5007125;28;20184;-70
2023/07/08 07:03:11;;;;;;;7.90;5.43;;;;;;;28.33;31.90;97635.19;5012144;28;20192;-70
2023/07/08 07:05:37;;;;;;;9.07;5.63;;;;;;;28.30;32.23;97633.00;5007821;28;20205;-70
2023/07/08 07:08:04;;;;;;;8.70;5.40;;;;;;;28.26;32.30;97637.28;5007773;28;20427;-72
2023/07/08 07:10:30;;;;;;;6.07;4.93;;;;;;;28.11;32.28;97637.97;5010058;28;20180;-69
2023/07/08 07:12:55;;;;;;;15.13;4.80;;;;;;;28.05;32.58;97633.56;5022114;28;20458;-71
2023/07/08 07:15:20;;;;;;;6.53;4.90;;;;;;;28.02;32.85;97632.19;5008134;28;20208;-72
2023/07/08 07:17:46;;;;;;;15.30;4.80;;;;;;;27.97;32.94;97640.25;5010850;28;20188;-70
2023/07/08 07:20:12;;;;;;;9.53;4.37;;;;;;;27.99;33.03;97639.97;5011479;28;20275;-70
2023/07/08 07:22:37;;;;;;;6.70;4.97;;;;;;;27.99;33.02;97638.09;5010616;28;20242;-70
2023/07/08 07:25:03;;;;;;;6.70;5.27;;;;;;;28.01;33.09;97644.03;5011137;28;20206;-69
2023/07/08 07:27:29;;;;;;;8.17;4.97;;;;;;;28.01;33.48;97643.22;5011266;28;20196;-69
2023/07/08 07:29:54;;;;;;;8.17;6.50;;;;;;;28.01;33.37;97652.09;5010461;28;20423;-70
2023/07/08 07:32:23;;;;;;;12.63;7.80;;;;;;;28.05;33.65;97638.94;5013089;28;20250;-69
2023/07/08 07:34:49;;;;;;;7.40;5.00;;;;;;;28.04;33.96;97635.44;5011983;28;20216;-70
2023/07/08 07:37:17;;;;;;;8.57;5.30;;;;;;;28.06;33.79;97643.25;5015705;28;20427;-70
2023/07/08 07:39:42;;;;;;;9.70;6.40;;;;;;;28.09;33.83;97647.38;5013863;28;20438;-70
2023/07/08 07:42:08;;;;;;;9.97;6.60;;;;;;;28.11;34.04;97642.53;5017938;28;20452;-70
2023/07/08 07:44:34;;;;;;;8.93;6.40;;;;;;;28.14;33.92;97642.03;5015338;28;20220;-72
2023/07/08 07:46:59;;;;;;;9.00;5.80;;;;;;;28.15;33.79;97644.47;5041552;28;20447;-73
2023/07/08 07:49:25;;;;;;;5.90;5.13;;;;;;;28.21;33.67;97642.63;5017953;28;20214;-72
2023/07/08 07:51:50;;;;;;;7.90;5.27;;;;;;;28.27;33.92;97641.59;5017015;28;20192;-71
2023/07/08 07:54:15;;;;;;;10.50;4.57;;;;;;;28.44;33.79;97640.66;5011034;28;20299;-71
2023/07/08 07:56:41;;;;;;;11.03;5.40;;;;;;;28.61;33.72;97640.50;5010336;28;20180;-70
2023/07/08 07:59:07;;;;;;;10.30;4.80;;;;;;;28.65;33.29;97642.41;5010575;28;20184;-72
2023/07/08 08:01:32;;;;;;;10.03;5.70;;;;;;;28.85;33.43;97640.13;5012311;28;20222;-70
2023/07/08 08:03:58;;;;;;;6.60;5.90;;;;;;;28.97;32.84;97632.66;5010081;28;20227;-70
2023/07/08 08:06:23;;;;;;;8.60;6.20;;;;;;;29.06;32.51;97631.06;5010690;28;20549;-71
2023/07/08 08:08:49;;;;;;;5.60;3.97;;;;;;;29.07;32.76;97635.41;5009786;28;20187;-70
2023/07/08 08:11:26;;;;;;;8.33;4.10;;;;;;;29.17;32.40;97639.25;5018534;28;20227;-71
2023/07/08 08:14:00;;;;;;;5.70;4.47;;;;;;;29.32;32.81;97639.28;5017925;28;20212;-70
2023/07/08 08:16:25;;;;;;;6.47;4.23;;;;;;;29.52;32.24;97635.88;5007253;28;20441;-70
2023/07/08 08:18:51;;;;;;;7.43;4.67;;;;;;;29.72;32.38;97642.44;5016992;28;20796;-70
2023/07/08 08:21:16;;;;;;;10.77;4.20;;;;;;;29.92;32.17;97640.84;5008124;28;20279;-71
2023/07/08 08:23:42;;;;;;;5.60;4.30;;;;;;;29.99;32.11;97644.13;5011667;28;20230;-70
2023/07/08 08:26:07;;;;;;;8.87;4.17;;;;;;;30.04;31.80;97641.41;5009602;28;20224;-70
2023/07/08 08:28:32;;;;;;;6.90;3.90;;;;;;;30.08;31.52;97647.91;5008008;28;20199;-70
2023/07/08 08:30:58;;;;;;;7.80;4.70;;;;;;;30.21;30.97;97641.16;5009345;28;20784;-70
2023/07/08 08:33:23;;;;;;;5.50;3.50;;;;;;;30.40;31.09;97643.34;5009856;28;20279;-69
2023/07/08 08:35:49;;;;;;;9.07;4.10;;;;;;;30.48;30.71;97654.41;5009215;28;20227;-70
2023/07/08 08:38:14;;;;;;;8.67;4.40;;;;;;;30.45;30.16;97648.72;5010036;28;20208;-70
2023/07/08 08:40:41;;;;;;;8.20;3.73;;;;;;;30.38;30.11;97650.91;5009637;28;20177;-70
2023/07/08 08:43:10;;;;;;;6.70;3.40;;;;;;;30.32;30.19;97650.88;5017206;28;20571;-71
2023/07/08 08:45:41;;;;;;;5.73;3.57;;;;;;;30.18;30.35;97656.03;5006373;28;20495;-70
2023/07/08 08:48:11;;;;;;;5.07;3.03;;;;;;;30.26;30.27;97657.38;5006126;28;20419;-69
2023/07/08 08:50:45;;;;;;;6.30;3.63;;;;;;;30.23;30.59;97654.41;5007696;28;20423;-69
2023/07/08 08:53:12;;;;;;;4.00;3.03;;;;;;;30.29;30.39;97648.75;5008719;28;20856;-70
2023/07/08 08:55:38;;;;;;;7.00;3.90;;;;;;;30.40;29.77;97651.44;5009492;28;20463;-70
2023/07/08 08:58:11;;;;;;;5.20;3.10;;;;;;;30.58;29.68;97659.00;5013202;28;20435;-69
2023/07/08 09:01:01;;;;;;;5.00;3.47;;;;;;;30.97;29.38;97654.91;5008940;28;20279;-69
2023/07/08 09:03:42;;;;;;;4.20;3.17;;;;;;;31.37;27.94;97664.00;5010359;28;20424;-70
2023/07/08 09:06:23;;;;;;;4.70;2.70;;;;;;;31.75;27.22;97647.31;5017557;28;20439;-71
2023/07/08 09:08:49;;;;;;;4.40;3.10;;;;;;;32.13;27.02;97644.88;5015285;28;20482;-71
2023/07/08 09:11:38;;;;;;;3.10;2.70;;;;;;;32.51;26.51;97647.06;5011230;28;20423;-70
2023/07/08 09:14:04;;;;;;;5.53;2.80;;;;;;;32.77;25.55;97642.19;5001289;28;20547;-71
2023/07/08 09:16:56;;;;;;;5.30;2.77;;;;;;;33.05;25.97;97644.34;5017125;28;20596;-70
2023/07/08 09:19:35;;;;;;;7.07;3.40;;;;;;;33.11;25.86;97656.78;5028414;28;20227;-70
2023/07/08 09:22:44;;;;;;;9.33;3.10;;;;;;;32.89;25.45;97657.28;5008150;28;20465;-70
2023/07/08 09:25:24;;;;;;;5.57;2.77;;;;;;;32.73;25.91;97654.69;5008925;28;20496;-71
2023/07/08 09:27:50;;;;;;;4.43;2.60;;;;;;;32.50;26.42;97650.88;5008533;28;20455;-70
2023/07/08 09:30:17;;;;;;;3.73;2.70;;;;;;;32.49;26.39;97654.66;5008514;28;20843;-72
2023/07/08 09:32:42;;;;;;;3.27;2.60;;;;;;;32.39;26.25;97643.88;5007332;28;20189;-71
2023/07/08 09:35:21;;;;;;;5.30;2.77;;;;;;;32.42;26.56;97662.31;5009080;28;20486;-70
2023/07/08 09:37:48;;;;;;;4.30;2.70;;;;;;;32.43;26.48;97655.78;5016364;28;20215;-70
2023/07/08 09:40:19;;;;;;;7.60;2.73;;;;;;;32.70;26.35;97646.31;5011974;28;20480;-70
2023/07/08 09:42:48;;;;;;;3.67;2.67;;;;;;;32.77;25.95;97644.91;5008266;28;20445;-70
2023/07/08 09:45:17;;;;;;;3.77;3.00;;;;;;;32.82;25.89;97646.78;5007359;28;20435;-71
2023/07/08 09:47:45;;;;;;;7.30;2.60;;;;;;;32.72;26.34;97652.28;5008209;28;20785;-71
2023/07/08 09:50:28;;;;;;;5.60;2.70;;;;;;;32.96;26.48;97651.53;5008671;28;20411;-70
2023/07/08 09:53:00;;;;;;;4.10;2.40;;;;;;;32.98;26.12;97669.13;5006602;28;20428;-72
2023/07/08 09:55:27;;;;;;;6.77;3.40;;;;;;;32.92;25.90;97654.81;5008655;28;20501;-70
2023/07/08 09:57:53;;;;;;;4.00;2.70;;;;;;;33.18;26.05;97661.88;5008004;28;20430;-71
2023/07/08 10:00:27;;;;;;;7.57;2.77;;;;;;;33.36;25.75;97655.69;5007687;28;20435;-71
2023/07/08 10:02:58;;;;;;;6.47;3.20;;;;;;;33.13;25.99;97657.31;4990146;28;20967;-69
2023/07/08 10:05:24;;;;;;;5.50;3.13;;;;;;;32.99;26.23;97662.59;5007085;28;20503;-70
2023/07/08 10:07:55;;;;;;;9.63;3.20;;;;;;;32.87;26.63;97665.72;5004408;28;20943;-70
2023/07/08 10:10:30;;;;;;;4.00;2.90;;;;;;;32.78;26.80;97657.38;5010181;28;21022;-69
2023/07/08 10:13:17;;;;;;;4.53;3.07;;;;;;;32.46;27.05;97656.03;5006373;28;20429;-70
2023/07/08 10:15:47;;;;;;;5.23;3.30;;;;;;;32.36;26.96;97655.31;5004617;28;20475;-69
2023/07/08 10:18:16;;;;;;;6.73;3.20;;;;;;;31.87;28.36;97665.94;5012294;28;20442;-70
2023/07/08 10:20:53;;;;;;;5.73;3.47;;;;;;;32.05;28.29;97666.34;5007501;28;20424;-70
2023/07/08 10:23:38;;;;;;;6.63;4.13;;;;;;;31.94;28.36;97666.44;5006689;28;20439;-70
2023/07/08 10:26:14;;;;;;;6.00;3.40;;;;;;;32.01;28.16;97663.41;5007317;28;20457;-71
2023/07/08 10:28:45;;;;;;;5.97;3.23;;;;;;;32.11;28.34;97665.25;5010021;28;20453;-69
2023/07/08 10:31:31;;;;;;;5.83;3.87;;;;;;;32.37;27.92;97665.88;5004583;28;20454;-70
2023/07/08 10:34:10;;;;;;;3.80;3.40;;;;;;;32.57;27.47;97664.09;5007629;28;20840;-70
2023/07/08 10:36:44;;;;;;;3.87;2.90;;;;;;;32.76;27.39;97653.34;5009271;28;20804;-71
2023/07/08 10:39:28;;;;;;;3.10;2.80;;;;;;;33.06;27.29;97651.41;5004580;28;20424;-71
2023/07/08 10:42:02;;;;;;;7.10;3.33;;;;;;;33.44;26.73;97661.59;5007693;28;20463;-70
2023/07/08 10:44:56;;;;;;;4.93;3.30;;;;;;;33.57;26.82;97654.63;5009646;28;20441;-71
2023/07/08 10:47:46;;;;;;;4.20;3.27;;;;;;;33.92;26.40;97641.66;5017506;28;20430;-70
2023/07/08 10:50:40;;;;;;;4.67;3.60;;;;;;;34.19;26.46;97642.88;5016672;28;20419;-71
2023/07/08 10:53:30;;;;;;;3.40;3.10;;;;;;;34.25;25.65;97658.00;4999409;28;20415;-71
2023/07/08 10:55:59;;;;;;;7.50;2.90;;;;;;;33.59;25.83;97636.91;5009710;28;20525;-70
2023/07/08 10:58:51;;;;;;;6.87;3.37;;;;;;;33.85;25.87;97639.28;5010122;28;20419;-69
2023/07/08 11:01:49;;;;;;;4.57;3.27;;;;;;;33.96;26.21;97629.09;5008168;28;20427;-70
2023/07/08 11:04:55;;;;;;;4.87;3.50;;;;;;;34.02;25.68;97644.25;5012920;28;20916;-71
2023/07/08 11:07:41;;;;;;;4.37;2.87;;;;;;;34.37;25.45;97644.75;5004086;28;20418;-72
2023/07/08 11:10:14;;;;;;;12.20;3.03;;;;;;;34.57;24.96;97642.81;5010121;28;20509;-72
2023/07/08 11:12:47;;;;;;;5.70;2.60;;;;;;;34.45;24.75;97646.81;5006196;28;20419;-73
2023/07/08 11:15:12;;;;;;;2.87;2.53;;;;;;;34.41;25.14;97639.56;5005171;28;20486;-71
2023/07/08 11:18:13;;;;;;;5.03;2.93;;;;;;;33.99;26.41;97636.66;5006972;28;20452;-73
2023/07/08 11:20:51;;;;;;;3.43;3.13;;;;;;;33.81;25.97;97644.50;4999169;28;20238;-71
2023/07/08 11:23:43;;;;;;;4.03;2.57;;;;;;;33.74;26.11;97638.63;5010056;28;20414;-69
2023/07/08 11:26:27;;;;;;;4.07;2.87;;;;;;;33.49;26.53;97632.44;5011217;28;20447;-71
2023/07/08 11:28:54;;;;;;;5.13;2.87;;;;;;;33.66;26.67;97634.66;4994193;28;20419;-69
2023/07/08 11:31:20;;;;;;;7.23;3.10;;;;;;;33.87;26.36;97636.28;5008369;28;20439;-70
2023/07/08 11:33:46;;;;;;;8.10;3.07;;;;;;;33.85;26.20;97634.66;5008731;28;20489;-70
2023/07/08 11:36:13;;;;;;;6.13;3.10;;;;;;;34.00;26.45;97636.34;5009800;28;20443;-71